Aeroporto :
LOGIN :

Iscrizione | Disclaimer

   EN    FR    IT 

 










Sommario :    VFR   VFR Marginale   IFR   IFR Intensivo   IFR Molto Intensivo
Visibilità : 
Base nubi : 
>= 8 km
>= 3000ft
5 / 8 km
1000 / 3000 ft
1500m / 5 km
500 / 1000 ft
800 / 1500m
200 / 500 ft
< 800m
< 200 ft
Simboli :   Temporali  Nebbia  Neve Forte  Precipitazioni Forti  Vento > 20 kt
SIGMETs :   Varie  Temporali  Ghiacco  Turbolenza  Onda orograficha  Ceneri Vulcaniche






- Altitudine del aeroporto : 1197 ft
- Codice IATA : SPM


ETAD - Spangdahlem Ab

ULTIMO METAR :
  • 061756Z AUTO 23012KT 9999 SCT085 15/04 A2962 RMK AO2 SLP020 60001 T01450039 10161 20114 55001 $

METARs OBSOLETI :
  • 061656Z AUTO 22010KT 9999 SCT085 16/04 A2962 RMK AO2 SLP020 T01570044 $
  • 061556Z AUTO 22017KT 9999 FEW049 BKN080 15/04 A2962 RMK AO2 PK WND 21026/06 SLP022 T01510042 $

TAF TAF ETAD
Valido dal 06 a 14 ore il 07 a 20 ore UTC


061352Z 0614/0720 23014G20KT 9999 SCT040 SCT060 QNH2961INS
BECMG 0617/0618 23008KT 9999 SCT030 BKN050 QNH2966INS
BECMG 0704/0705 23010G15KT 9999 SCT015 BKN025 QNH2974INS TX16/0614Z TN08/0708Z LAST NO AMDS AFT 0618 NEXT 0710



MetMap, La meteo Aeronautica in un colpo d'occhio ! - Copyright ORBIFLY Dicembre 2007 - Disclaimer

ORBIFLY MET'MAP TEAM :

Programmazione e sviluppo : Alexandra Zaïnal
Concezione : Baudouin d'Aumeries
Aiuto per la programmazione : Marc-Olivier Méhu
Supporto tecnico e logistico : Manuel Goepfert
Aiuto per la traduzione : Arnaldo La Scala

Contatto : metmap@orbifly.com




FONTI E CREDITI :

   NOAA